KSYI/SYI METAR and TAF weather

Enter ICAO airport designator
Station Type Date Time Source
KSYI METAR 2019/06/26 19:55 UTC NOAA

KSYI 261955Z AUTO 00000KT 10SM FEW043 FEW050 31/20 A3014 RMK A01


Station Type Date Time Source
KSYI Decoded METAR 2019/06/26 19:55 UTC NOAA

Station name not available
Jun 26, 2019 - 03:55 PM EDT / 2019.06.26 1955 UTC
Wind: Calm:0
Visibility: 10 mile(s):0
Sky conditions: mostly clear
Temperature: 87 F (31 C)
Dew Point: 68 F (20 C)
Relative Humidity: 52%
Pressure (altimeter): 30.14 in. Hg (1020 hPa)
ob: KSYI 261955Z AUTO 00000KT 10SM FEW043 FEW050 31/20 A3014 RMK A01
cycle: 20

Station Type Date Time Source
KSYI TAF UTC NOAA

Error!

Example: see airport list